KJWY

Mid-Way Regional Airport

Midlothian/Waxahachie, Texas, USA
METAR KJWY 212155Z AUTO 00000KT 10SM BKN060 BKN080 36/20 A2987 RMK AO2 T03570200
Observed Flight Rules
Jun-21 @ 21:55 UTC (11 minutes ago) Visual Flight Rules
Visibility Clouds
10 miles
  • Broken at 6,000' AGL
  • Broken at 8,000' AGL
Temperatures Readings
Current 36°C / 97°F
Dewpoint 20°C / 68°F
Humidity 39%
Altimeter 29.87" Hg
Pressure 1012 hPa
Elevation 217
METAR KJWY 212155Z AUTO 00000KT 10SM BKN060 BKN080 36/20 A2987 RMK AO2 T03570200
Observed Flight Rules
Jun-21 @ 21:55 UTC
(11 minutes ago)
VFR
Clouds
  • Broken at 6,000' AGL
  • Broken at 8,000' AGL
Temperature Dewpoint
36°C / 97°F 20°C / 68°F
Humidity Altimeter Pressure
39% 29.87" Hg 1012 hPa